Thunder radar more information blitzortung!


Löydät sääaseman tiedot myös:

European Weather Network

Finland Weather Exchange

Weather Underground

AWEKAS



Weather Underground säähistoriasivu

Päivittäin yhteenveto Tammikuu 21, 2017 Yksiköt:  Molemmat    Englantilaiset   Metriset
« Edellinen Päivä
Seuraava Päivä »
Päivittäin Viikoittain Kuukausittain Vuosittain Mukautettu
  Korkea: Matala: Keskiarvo:
Lämpötila: TemperatureC °F /  -17.8 °C -3.6 °F /  -19.8 °C -1.1 °F /  -18.4 °C
Kastepiste: DewpointC °F /  -17.8 °C -5.1 °F /  -20.6 °C -3.1 °F /  -19.5 °C
Kosteus: Humidity % 78 % 85 %
Tuulen nopeus: WindSpeedKMH mph /  0 km/h - 0 mph /  0 km/h
Tuulenpuuska: WindSpeedGustKMH mph /  0 km/h - -
Tuuli:- - North
Ilmanpaine: PressurehPa in /  0 hPa 1014.8 in /  34361.1 hPa -
Sade: 0.0 in /  0 mm    
Historical Graphs
 
 
Taulukkotiedot Tammikuu 21, 2017
Aika Lämpötila Kastepiste Ilmanpaine Tuuli Tuulen nopeus Tuulenpuuska Kosteus Sademäärä (tunneittain)
TemperatureC °F /  -17.8 °C DewpointC °F /  -17.8 °C PressurehPa in /  0 hPa Calm     Humidity % HourlyPrecipMM in /  0 mm
00:00 -1.2 °F /  -18.4 °C -3.1 °F /  -19.5 °C 1014.8 in /  34361.1 hPa Calm     87 % 0.0 in /  0 mm
00:15 -1.2 °F /  -18.4 °C -3.3 °F /  -19.6 °C 1014.8 in /  34361.1 hPa Calm     86 % 0.0 in /  0 mm
00:30 -1.2 °F /  -18.4 °C -3.2 °F /  -19.6 °C 1015.1 in /  34371.3 hPa Calm     86 % 0.0 in /  0 mm
00:45 -1.1 °F /  -18.4 °C -3.1 °F /  -19.5 °C 1015.1 in /  34371.3 hPa Calm     86 % 0.0 in /  0 mm
01:00 -0.9 °F /  -18.3 °C -3.1 °F /  -19.5 °C 1015.1 in /  34371.3 hPa Calm     85 % 0.0 in /  0 mm
01:15 -0.8 °F /  -18.2 °C -3.1 °F /  -19.5 °C 1015.5 in /  34384.8 hPa Calm     84 % 0.0 in /  0 mm
01:30 -0.9 °F /  -18.3 °C -3.1 °F /  -19.5 °C 1015.5 in /  34384.8 hPa Calm     85 % 0.0 in /  0 mm
01:45 -0.8 °F /  -18.2 °C -3.0 °F /  -19.4 °C 1015.5 in /  34384.8 hPa Calm     85 % 0.0 in /  0 mm
02:00 -0.8 °F /  -18.2 °C -3.0 °F /  -19.4 °C 1015.5 in /  34384.8 hPa Calm     85 % 0.0 in /  0 mm
02:15 -0.8 °F /  -18.2 °C -3.2 °F /  -19.6 °C 1015.8 in /  34395 hPa Calm     84 % 0.0 in /  0 mm
02:30 -0.9 °F /  -18.3 °C -3.1 °F /  -19.5 °C 1015.8 in /  34395 hPa Calm     85 % 0.0 in /  0 mm
02:45 -1.1 °F /  -18.4 °C -3.4 °F /  -19.7 °C 1015.8 in /  34395 hPa Calm     84 % 0.0 in /  0 mm
03:00 -1.3 °F /  -18.5 °C -3.5 °F /  -19.7 °C 1015.8 in /  34395 hPa Calm     85 % 0.0 in /  0 mm
03:15 -1.3 °F /  -18.5 °C -3.5 °F /  -19.7 °C 1016.1 in /  34405.1 hPa Calm     85 % 0.0 in /  0 mm
03:30 -1.2 °F /  -18.4 °C -3.4 °F /  -19.7 °C 1016.1 in /  34405.1 hPa Calm     85 % 0.0 in /  0 mm
03:45 -1.3 °F /  -18.5 °C -3.5 °F /  -19.7 °C 1016.1 in /  34405.1 hPa Calm     85 % 0.0 in /  0 mm
04:00 -1.3 °F /  -18.5 °C -3.5 °F /  -19.7 °C 1016.1 in /  34405.1 hPa Calm     85 % 0.0 in /  0 mm
04:15 -1.3 °F /  -18.5 °C -3.6 °F /  -19.8 °C 1016.5 in /  34418.7 hPa Calm     84 % 0.0 in /  0 mm
04:30 -1.2 °F /  -18.4 °C -3.5 °F /  -19.7 °C 1016.5 in /  34418.7 hPa Calm     84 % 0.0 in /  0 mm
04:45 -1.1 °F /  -18.4 °C -3.5 °F /  -19.7 °C 1016.5 in /  34418.7 hPa Calm     84 % 0.0 in /  0 mm
05:00 -1.1 °F /  -18.4 °C -3.4 °F /  -19.7 °C 1016.5 in /  34418.7 hPa Calm     84 % 0.0 in /  0 mm
05:15 -1.0 °F /  -18.3 °C -3.2 °F /  -19.6 °C 1016.5 in /  34418.7 hPa Calm     85 % 0.0 in /  0 mm
05:30 -1.2 °F /  -18.4 °C -3.4 °F /  -19.7 °C 1016.5 in /  34418.7 hPa Calm     85 % 0.0 in /  0 mm
05:45 -1.1 °F /  -18.4 °C -3.0 °F /  -19.4 °C 1016.8 in /  34428.8 hPa Calm     87 % 0.0 in /  0 mm
06:00 -0.9 °F /  -18.3 °C -3.0 °F /  -19.4 °C 1016.8 in /  34428.8 hPa Calm     86 % 0.0 in /  0 mm
06:15 -0.9 °F /  -18.3 °C -3.0 °F /  -19.4 °C 1016.5 in /  34418.7 hPa Calm     86 % 0.0 in /  0 mm
06:30 -0.9 °F /  -18.3 °C -3.1 °F /  -19.5 °C 1016.5 in /  34418.7 hPa Calm     85 % 0.0 in /  0 mm
06:45 -0.9 °F /  -18.3 °C -2.9 °F /  -19.4 °C 1016.8 in /  34428.8 hPa Calm     86 % 0.0 in /  0 mm
07:00 -0.7 °F /  -18.2 °C -2.9 °F /  -19.4 °C 1016.8 in /  34428.8 hPa Calm     85 % 0.0 in /  0 mm
07:15 -0.5 °F /  -18.1 °C -2.7 °F /  -19.3 °C 1017.2 in /  34442.4 hPa Calm     85 % 0.0 in /  0 mm
07:30 -0.5 °F /  -18.1 °C -2.7 °F /  -19.3 °C 1017.2 in /  34442.4 hPa Calm     85 % 0.0 in /  0 mm
07:45 -0.5 °F /  -18.1 °C -2.7 °F /  -19.3 °C 1017.2 in /  34442.4 hPa Calm     85 % 0.0 in /  0 mm
08:00 -0.3 °F /  -17.9 °C -2.7 °F /  -19.3 °C 1017.2 in /  34442.4 hPa Calm     84 % 0.0 in /  0 mm
08:15 -0.3 °F /  -17.9 °C -2.7 °F /  -19.3 °C 1017.2 in /  34442.4 hPa Calm     84 % 0.0 in /  0 mm
08:30 -0.3 °F /  -17.9 °C -2.8 °F /  -19.3 °C 1017.5 in /  34452.6 hPa Calm     83 % 0.0 in /  0 mm
08:45 -0.3 °F /  -17.9 °C -2.8 °F /  -19.3 °C 1017.5 in /  34452.6 hPa Calm     83 % 0.0 in /  0 mm
09:00 -0.3 °F /  -17.9 °C -2.9 °F /  -19.4 °C 1017.8 in /  34462.7 hPa Calm     83 % 0.0 in /  0 mm
09:15 -0.3 °F /  -17.9 °C -3.0 °F /  -19.4 °C 1017.8 in /  34462.7 hPa Calm     82 % 0.0 in /  0 mm
09:30 -0.4 °F /  -18 °C -3.1 °F /  -19.5 °C 1018.2 in /  34476.3 hPa Calm     82 % 0.0 in /  0 mm
09:45 -0.4 °F /  -18 °C -3.1 °F /  -19.5 °C 1018.5 in /  34486.4 hPa Calm     82 % 0.0 in /  0 mm
10:00 -0.4 °F /  -18 °C -3.1 °F /  -19.5 °C 1019.2 in /  34510.1 hPa Calm     82 % 0.0 in /  0 mm
10:15 -0.4 °F /  -18 °C -3.1 °F /  -19.5 °C 1019.2 in /  34510.1 hPa Calm     82 % 0.0 in /  0 mm
10:30 -0.4 °F /  -18 °C -3.1 °F /  -19.5 °C 1019.5 in /  34520.3 hPa Calm     82 % 0.0 in /  0 mm
10:45 -0.4 °F /  -18 °C -3.1 °F /  -19.5 °C 1019.9 in /  34533.8 hPa Calm     82 % 0.0 in /  0 mm
11:00 -0.3 °F /  -17.9 °C -3.2 °F /  -19.6 °C 1019.9 in /  34533.8 hPa Calm     81 % 0.0 in /  0 mm
11:15 -0.3 °F /  -17.9 °C -3.2 °F /  -19.6 °C 1020.2 in /  34544 hPa Calm     81 % 0.0 in /  0 mm
11:30 -0.4 °F /  -18 °C -3.3 °F /  -19.6 °C 1020.5 in /  34554.1 hPa Calm     81 % 0.0 in /  0 mm
11:45 -0.4 °F /  -18 °C -3.3 °F /  -19.6 °C 1020.9 in /  34567.7 hPa Calm     81 % 0.0 in /  0 mm
12:00 -0.4 °F /  -18 °C -3.3 °F /  -19.6 °C 1020.9 in /  34567.7 hPa Calm     81 % 0.0 in /  0 mm
12:15 -0.3 °F /  -17.9 °C -3.1 °F /  -19.5 °C 1020.9 in /  34567.7 hPa Calm     81 % 0.0 in /  0 mm
12:30 -0.1 °F /  -17.8 °C -3.1 °F /  -19.5 °C 1020.9 in /  34567.7 hPa Calm     80 % 0.0 in /  0 mm
12:45 0.1 °F /  -17.7 °C -3.2 °F /  -19.6 °C 1020.9 in /  34567.7 hPa Calm     79 % 0.0 in /  0 mm
13:00 0.2 °F /  -17.7 °C -3.0 °F /  -19.4 °C 1020.9 in /  34567.7 hPa Calm     79 % 0.0 in /  0 mm
13:15 0.2 °F /  -17.7 °C -3.2 °F /  -19.6 °C 1020.9 in /  34567.7 hPa Calm     78 % 0.0 in /  0 mm
13:30 0.2 °F /  -17.7 °C -3.2 °F /  -19.6 °C 1020.9 in /  34567.7 hPa Calm     78 % 0.0 in /  0 mm
13:45 0.2 °F /  -17.7 °C -3.2 °F /  -19.6 °C 1020.9 in /  34567.7 hPa Calm     78 % 0.0 in /  0 mm
14:00 -0.1 °F /  -17.8 °C -3.3 °F /  -19.6 °C 1021.2 in /  34577.8 hPa Calm     79 % 0.0 in /  0 mm
14:15 -0.2 °F /  -17.9 °C -3.4 °F /  -19.7 °C 1021.2 in /  34577.8 hPa Calm     79 % 0.0 in /  0 mm
14:30 -0.4 °F /  -18 °C -3.4 °F /  -19.7 °C 1021.2 in /  34577.8 hPa Calm     80 % 0.0 in /  0 mm
14:45 -0.7 °F /  -18.2 °C -3.6 °F /  -19.8 °C 1021.2 in /  34577.8 hPa Calm     81 % 0.0 in /  0 mm
15:00 -1.0 °F /  -18.3 °C -3.8 °F /  -19.9 °C 1021.6 in /  34591.4 hPa Calm     81 % 0.0 in /  0 mm
15:15 -1.2 °F /  -18.4 °C -3.8 °F /  -19.9 °C 1021.6 in /  34591.4 hPa Calm     82 % 0.0 in /  0 mm
15:30 -1.4 °F /  -18.6 °C -4.0 °F /  -20 °C 1021.2 in /  34577.8 hPa Calm     83 % 0.0 in /  0 mm
15:45 -1.8 °F /  -18.8 °C -4.1 °F /  -20.1 °C 1021.2 in /  34577.8 hPa Calm     84 % 0.0 in /  0 mm
16:00 -1.9 °F /  -18.8 °C -4.3 °F /  -20.2 °C 1020.9 in /  34567.7 hPa Calm     84 % 0.0 in /  0 mm
16:15 -2.4 °F /  -19.1 °C -4.6 °F /  -20.3 °C 1020.9 in /  34567.7 hPa Calm     85 % 0.0 in /  0 mm
16:30 -2.6 °F /  -19.2 °C -4.4 °F /  -20.2 °C 1020.5 in /  34554.1 hPa Calm     87 % 0.0 in /  0 mm
16:45 -2.8 °F /  -19.3 °C -4.7 °F /  -20.4 °C 1020.5 in /  34554.1 hPa Calm     87 % 0.0 in /  0 mm
17:00 -3.1 °F /  -19.5 °C -4.8 °F /  -20.4 °C 1020.9 in /  34567.7 hPa Calm     88 % 0.0 in /  0 mm
17:15 -3.3 °F /  -19.6 °C -5.0 °F /  -20.6 °C 1020.9 in /  34567.7 hPa Calm     88 % 0.0 in /  0 mm
17:30 -3.3 °F /  -19.6 °C -4.9 °F /  -20.5 °C 1020.9 in /  34567.7 hPa Calm     89 % 0.0 in /  0 mm
17:45 -3.6 °F /  -19.8 °C -5.1 °F /  -20.6 °C 1020.9 in /  34567.7 hPa Calm     89 % 0.0 in /  0 mm
18:00 -3.6 °F /  -19.8 °C -5.0 °F /  -20.6 °C 1020.5 in /  34554.1 hPa Calm     90 % 0.0 in /  0 mm
18:15 -3.3 °F /  -19.6 °C -4.5 °F /  -20.3 °C 1020.2 in /  34544 hPa Calm     91 % 0.0 in /  0 mm
18:30 -3.2 °F /  -19.6 °C -4.6 °F /  -20.3 °C 1020.2 in /  34544 hPa Calm     90 % 0.0 in /  0 mm
18:45 -3.0 °F /  -19.4 °C -4.4 °F /  -20.2 °C 1020.2 in /  34544 hPa Calm     90 % 0.0 in /  0 mm
19:00 -2.7 °F /  -19.3 °C -4.1 °F /  -20.1 °C 1019.9 in /  34533.8 hPa Calm     90 % 0.0 in /  0 mm
19:15 -2.6 °F /  -19.2 °C -4.0 °F /  -20 °C 1019.9 in /  34533.8 hPa Calm     90 % 0.0 in /  0 mm
19:30 -2.3 °F /  -19.1 °C -3.8 °F /  -19.9 °C 1019.9 in /  34533.8 hPa Calm     90 % 0.0 in /  0 mm
19:45 -2.2 °F /  -19 °C -3.6 °F /  -19.8 °C 1019.9 in /  34533.8 hPa Calm     90 % 0.0 in /  0 mm
20:00 -2.1 °F /  -18.9 °C -3.3 °F /  -19.6 °C 1019.5 in /  34520.3 hPa Calm     91 % 0.0 in /  0 mm
20:15 -1.9 °F /  -18.8 °C -3.1 °F /  -19.5 °C 1018.8 in /  34496.6 hPa Calm     92 % 0.0 in /  0 mm
20:30 -1.9 °F /  -18.8 °C -2.9 °F /  -19.4 °C 1018.8 in /  34496.6 hPa Calm     93 % 0.0 in /  0 mm
20:45 -1.8 °F /  -18.8 °C -2.8 °F /  -19.3 °C 1018.5 in /  34486.4 hPa Calm     93 % 0.0 in /  0 mm
21:00 -1.8 °F /  -18.8 °C -2.8 °F /  -19.3 °C 1018.2 in /  34476.3 hPa Calm     93 % 0.0 in /  0 mm
21:15 -1.8 °F /  -18.8 °C -2.6 °F /  -19.2 °C 1017.8 in /  34462.7 hPa Calm     94 % 0.0 in /  0 mm
21:30 -1.7 °F /  -18.7 °C -2.6 °F /  -19.2 °C 1017.5 in /  34452.6 hPa Calm     94 % 0.0 in /  0 mm
21:45 -1.6 °F /  -18.7 °C -2.3 °F /  -19.1 °C 1017.2 in /  34442.4 hPa Calm     95 % 0.0 in /  0 mm
22:00 -1.2 °F /  -18.4 °C -1.9 °F /  -18.8 °C 1016.8 in /  34428.8 hPa Calm     95 % 0.0 in /  0 mm
22:15 -0.8 °F /  -18.2 °C -1.3 °F /  -18.5 °C 1016.5 in /  34418.7 hPa Calm     96 % 0.0 in /  0 mm
22:30 0.0 °F /  -17.8 °C -0.6 °F /  -18.1 °C 1016.5 in /  34418.7 hPa Calm     96 % 0.0 in /  0 mm
22:45 0.8 °F /  -17.3 °C 0.4 °F /  -17.6 °C 1016.1 in /  34405.1 hPa Calm     97 % 0.0 in /  0 mm
23:00 1.2 °F /  -17.1 °C 0.7 °F /  -17.4 °C 1015.8 in /  34395 hPa Calm     96 % 0.0 in /  0 mm
23:15 1.5 °F /  -16.9 °C 1.1 °F /  -17.2 °C 1015.8 in /  34395 hPa Calm     97 % 0.0 in /  0 mm
23:30 1.8 °F /  -16.8 °C 1.2 °F /  -17.1 °C 1015.8 in /  34395 hPa Calm     96 % 0.0 in /  0 mm
Esan sääasema
Terveisin Weather Underground - 2.75 mb

Alkuperäinen skripti  Jim McMurry - jmcmurry@mwt.net Sovitettu myös templatelle  Wim van der Kuil - Leuven-Template.eu

Laitteet joita käytämme:

Sääasema
Davis VP2

Sääasemaohjelma
Cumulus

Sääaseman tietokone
Asus EeePC

Palveluntarjoaja
Suncomet

Davis VP2

Cumulus

Asus EeePC

Suncomet